Погода Тиссина неделю

Республика Дагестан, Россия

16 - 22 июля
  • 16июля
    Сегодня
    +20°
    +32°
    Облачно с прояснениями
    ВремяПогодаТемператураВлажностьДавлениеВетер, м/сВероятность осадков
    00:00Ясно и безоблачно+20°C80 %683 мм0.9 м/с2 %
    03:00Ясно и безоблачно+20°C81 %683 мм1.1 м/с2 %
    06:00Ясно и безоблачно+23°C74 %684 мм0.9 м/с2 %
    09:00Ясно и безоблачно+28°C53 %684 мм1.1 м/с2 %
    12:00Практически безоблачно+31°C43 %684 мм1.4 м/с10 %
    15:00Облачно с прояснениями+32°C39 %684 мм2.1 м/с19 %
    18:00Облачно с прояснениями+29°C54 %684 мм1.4 м/с15 %
    21:00Практически безоблачно+25°C68 %685 мм0.7 м/с2 %
  • 17июля
    Среда
    +21°
    +31°
    Облачно с прояснениями
    ВремяПогодаТемператураВлажностьДавлениеВетер, м/сВероятность осадков
    00:00Практически безоблачно+21°C81 %684 мм0.9 м/с3 %
    03:00Практически безоблачно+21°C81 %684 мм0.7 м/с1 %
    06:00Практически безоблачно+23°C74 %685 мм0.6 м/с4 %
    09:00Облачно с прояснениями+27°C56 %686 мм0.4 м/с6 %
    12:00Небольшая облачность+30°C44 %686 мм1.1 м/с17 %
    15:00Облачно с прояснениями+28°C62 %686 мм1.4 м/с28 %
    18:00Небольшая облачность+28°C62 %686 мм0.2 м/с18 %
    21:00Небольшая облачность+24°C71 %685 мм0.4 м/с9 %
  • 18июля
    Четверг
    +19°
    +31°
    Практически безоблачно
    ВремяПогодаТемператураВлажностьДавлениеВетер, м/сВероятность осадков
    00:00Облачно с прояснениями+22°C81 %685 мм0.9 м/с13 %
    03:00Облачно с прояснениями+21°C81 %684 мм0.5 м/с11 %
    06:00Практически безоблачно+23°C75 %685 мм0.6 м/с7 %
    09:00Практически безоблачно+28°C50 %685 мм0.9 м/с6 %
    12:00Практически безоблачно+30°C45 %685 мм1.6 м/с23 %
    15:00Практически безоблачно+30°C46 %685 мм1.7 м/с39 %
    18:00Облачно с прояснениями+28°C54 %684 мм1.7 м/с23 %
    21:00Практически безоблачно+25°C64 %685 мм0.6 м/с4 %
  • 19июля
    Пятница
    +21°
    +32°
    Ясно и безоблачно
    ВремяПогодаТемператураВлажностьДавлениеВетер, м/сВероятность осадков
    00:00Ясно и безоблачно+21°C81 %683 мм0.8 м/с3 %
    03:00Ясно и безоблачно+20°C82 %683 мм1.0 м/с2 %
    06:00Ясно и безоблачно+22°C72 %683 мм0.8 м/с3 %
    09:00Ясно и безоблачно+27°C48 %684 мм0.9 м/с5 %
    12:00Ясно и безоблачно+30°C38 %683 мм1.7 м/с11 %
    15:00Ясно и безоблачно+32°C31 %682 мм2.4 м/с14 %
    18:00Небольшая облачность+30°C44 %682 мм1.5 м/с12 %
    21:00Облачно с прояснениями+26°C53 %682 мм0.1 м/с6 %
  • 20июля
    Суббота
    +21°
    +33°
    Облачно с прояснениями
    ВремяПогодаТемператураВлажностьДавлениеВетер, м/сВероятность осадков
    00:00Облачно с прояснениями+22°C68 %682 мм0.6 м/с5 %
    03:00Облачно с прояснениями+22°C71 %681 мм1.1 м/с5 %
    06:00Облачно с прояснениями+23°C64 %681 мм0.8 м/с6 %
    09:00Небольшая облачность+28°C41 %682 мм0.5 м/с10 %
    12:00Практически безоблачно+32°C30 %681 мм1.4 м/с23 %
    15:00Облачно с прояснениями+33°C28 %681 мм1.9 м/с37 %
    18:00Облачно с прояснениями+30°C47 %681 мм1.2 м/с23 %
    21:00Облачно с прояснениями+25°C63 %682 мм0.8 м/с15 %
Мы используем cookies
Соглашаюсь